sensor_id;sensor_type;location;lat;lon;timestamp;temperature;humidity
38480;DHT22;62333;51.980;5.934;2023-04-24T00:01:13;11.10;96.10
38480;DHT22;62333;51.980;5.934;2023-04-24T00:03:40;11.10;96.10
38480;DHT22;62333;51.980;5.934;2023-04-24T00:06:06;11.10;96.10
38480;DHT22;62333;51.980;5.934;2023-04-24T00:08:34;11.10;96.10
38480;DHT22;62333;51.980;5.934;2023-04-24T00:11:00;11.10;96.10
38480;DHT22;62333;51.980;5.934;2023-04-24T00:13:26;11.10;96.20
38480;DHT22;62333;51.980;5.934;2023-04-24T00:15:54;11.10;96.10
38480;DHT22;62333;51.980;5.934;2023-04-24T00:18:20;11.20;96.10
38480;DHT22;62333;51.980;5.934;2023-04-24T00:20:45;11.20;96.10
38480;DHT22;62333;51.980;5.934;2023-04-24T00:23:12;11.20;96.10
38480;DHT22;62333;51.980;5.934;2023-04-24T00:25:38;11.20;96.10
38480;DHT22;62333;51.980;5.934;2023-04-24T00:28:03;11.20;96.10
38480;DHT22;62333;51.980;5.934;2023-04-24T00:30:29;11.20;96.10
38480;DHT22;62333;51.980;5.934;2023-04-24T00:32:55;11.20;96.10
38480;DHT22;62333;51.980;5.934;2023-04-24T00:35:21;11.20;96.00
38480;DHT22;62333;51.980;5.934;2023-04-24T00:37:46;11.20;96.00
38480;DHT22;62333;51.980;5.934;2023-04-24T00:40:12;11.30;96.00
38480;DHT22;62333;51.980;5.934;2023-04-24T00:42:39;11.20;95.90
38480;DHT22;62333;51.980;5.934;2023-04-24T00:45:06;11.20;95.90
38480;DHT22;62333;51.980;5.934;2023-04-24T00:47:33;11.20;96.00
38480;DHT22;62333;51.980;5.934;2023-04-24T00:50:04;11.20;96.00
38480;DHT22;62333;51.980;5.934;2023-04-24T00:52:30;11.20;96.00
38480;DHT22;62333;51.980;5.934;2023-04-24T00:54:58;11.20;96.00
38480;DHT22;62333;51.980;5.934;2023-04-24T00:57:24;11.20;96.10
38480;DHT22;62333;51.980;5.934;2023-04-24T00:59:51;11.20;96.20
38480;DHT22;62333;51.980;5.934;2023-04-24T01:02:17;11.20;96.20
38480;DHT22;62333;51.980;5.934;2023-04-24T01:04:43;11.20;96.30
38480;DHT22;62333;51.980;5.934;2023-04-24T01:07:09;11.20;96.20
38480;DHT22;62333;51.980;5.934;2023-04-24T01:09:38;11.20;96.20
38480;DHT22;62333;51.980;5.934;2023-04-24T01:12:05;11.20;96.30
38480;DHT22;62333;51.980;5.934;2023-04-24T01:14:31;11.20;96.30
38480;DHT22;62333;51.980;5.934;2023-04-24T01:16:57;11.20;96.40
38480;DHT22;62333;51.980;5.934;2023-04-24T01:19:23;11.20;96.50
38480;DHT22;62333;51.980;5.934;2023-04-24T01:21:51;11.10;96.50
38480;DHT22;62333;51.980;5.934;2023-04-24T01:24:19;11.10;96.60
38480;DHT22;62333;51.980;5.934;2023-04-24T01:26:45;11.10;96.70
38480;DHT22;62333;51.980;5.934;2023-04-24T01:29:12;11.10;96.60
38480;DHT22;62333;51.980;5.934;2023-04-24T01:31:39;11.10;96.60
38480;DHT22;62333;51.980;5.934;2023-04-24T01:34:05;11.10;96.60
38480;DHT22;62333;51.980;5.934;2023-04-24T01:36:32;11.10;96.50
38480;DHT22;62333;51.980;5.934;2023-04-24T01:38:58;11.10;96.50
38480;DHT22;62333;51.980;5.934;2023-04-24T01:41:24;11.20;96.50
38480;DHT22;62333;51.980;5.934;2023-04-24T01:43:50;11.20;96.40
38480;DHT22;62333;51.980;5.934;2023-04-24T01:46:16;11.30;96.40
38480;DHT22;62333;51.980;5.934;2023-04-24T01:48:42;11.30;96.40
38480;DHT22;62333;51.980;5.934;2023-04-24T01:51:08;11.30;96.40
38480;DHT22;62333;51.980;5.934;2023-04-24T01:53:33;11.40;96.30
38480;DHT22;62333;51.980;5.934;2023-04-24T01:55:59;11.40;96.30
38480;DHT22;62333;51.980;5.934;2023-04-24T01:58:25;11.40;96.20
38480;DHT22;62333;51.980;5.934;2023-04-24T02:00:52;11.40;96.20
38480;DHT22;62333;51.980;5.934;2023-04-24T02:03:17;11.50;96.20
38480;DHT22;62333;51.980;5.934;2023-04-24T02:05:46;11.50;96.10
38480;DHT22;62333;51.980;5.934;2023-04-24T02:08:11;11.50;96.10
38480;DHT22;62333;51.980;5.934;2023-04-24T02:10:37;11.50;96.10
38480;DHT22;62333;51.980;5.934;2023-04-24T02:13:03;11.50;96.10
38480;DHT22;62333;51.980;5.934;2023-04-24T02:15:30;11.60;96.00
38480;DHT22;62333;51.980;5.934;2023-04-24T02:17:55;11.60;96.00
38480;DHT22;62333;51.980;5.934;2023-04-24T02:20:21;11.70;95.90
38480;DHT22;62333;51.980;5.934;2023-04-24T02:22:47;11.70;95.90
38480;DHT22;62333;51.980;5.934;2023-04-24T02:25:13;11.70;95.80
38480;DHT22;62333;51.980;5.934;2023-04-24T02:27:39;11.60;95.80
38480;DHT22;62333;51.980;5.934;2023-04-24T02:30:05;11.60;95.80
38480;DHT22;62333;51.980;5.934;2023-04-24T02:32:31;11.50;95.70
38480;DHT22;62333;51.980;5.934;2023-04-24T02:34:57;11.50;95.80
38480;DHT22;62333;51.980;5.934;2023-04-24T02:37:22;11.50;95.80
38480;DHT22;62333;51.980;5.934;2023-04-24T02:39:48;11.50;95.80
38480;DHT22;62333;51.980;5.934;2023-04-24T02:42:13;11.50;95.80
38480;DHT22;62333;51.980;5.934;2023-04-24T02:44:39;11.50;95.80
38480;DHT22;62333;51.980;5.934;2023-04-24T02:47:05;11.40;95.90
38480;DHT22;62333;51.980;5.934;2023-04-24T02:49:31;11.40;96.00
38480;DHT22;62333;51.980;5.934;2023-04-24T02:51:56;11.40;96.10
38480;DHT22;62333;51.980;5.934;2023-04-24T02:54:22;11.30;96.10
38480;DHT22;62333;51.980;5.934;2023-04-24T02:56:48;11.40;96.10
38480;DHT22;62333;51.980;5.934;2023-04-24T02:59:13;11.30;96.20
38480;DHT22;62333;51.980;5.934;2023-04-24T03:01:39;11.30;96.20
38480;DHT22;62333;51.980;5.934;2023-04-24T03:04:04;11.30;96.30
38480;DHT22;62333;51.980;5.934;2023-04-24T03:06:30;11.30;96.30
38480;DHT22;62333;51.980;5.934;2023-04-24T03:08:58;11.30;96.30
38480;DHT22;62333;51.980;5.934;2023-04-24T03:11:23;11.30;96.40
38480;DHT22;62333;51.980;5.934;2023-04-24T03:13:49;11.30;96.50
38480;DHT22;62333;51.980;5.934;2023-04-24T03:16:15;11.20;96.60
38480;DHT22;62333;51.980;5.934;2023-04-24T03:18:40;11.20;96.60
38480;DHT22;62333;51.980;5.934;2023-04-24T03:21:06;11.20;96.60
38480;DHT22;62333;51.980;5.934;2023-04-24T03:23:32;11.20;96.60
38480;DHT22;62333;51.980;5.934;2023-04-24T03:25:57;11.20;96.60
38480;DHT22;62333;51.980;5.934;2023-04-24T03:28:23;11.20;96.60
38480;DHT22;62333;51.980;5.934;2023-04-24T03:30:50;11.20;96.50
38480;DHT22;62333;51.980;5.934;2023-04-24T03:33:16;11.20;96.50
38480;DHT22;62333;51.980;5.934;2023-04-24T03:35:41;11.20;96.60
38480;DHT22;62333;51.980;5.934;2023-04-24T03:38:07;11.20;96.60
38480;DHT22;62333;51.980;5.934;2023-04-24T03:40:32;11.10;96.70
38480;DHT22;62333;51.980;5.934;2023-04-24T03:42:59;11.20;96.70
38480;DHT22;62333;51.980;5.934;2023-04-24T03:45:24;11.20;96.70
38480;DHT22;62333;51.980;5.934;2023-04-24T03:47:50;11.20;96.60
38480;DHT22;62333;51.980;5.934;2023-04-24T03:50:16;11.10;96.60
38480;DHT22;62333;51.980;5.934;2023-04-24T03:52:41;11.10;96.70
38480;DHT22;62333;51.980;5.934;2023-04-24T03:55:07;11.10;96.70
38480;DHT22;62333;51.980;5.934;2023-04-24T03:57:33;11.00;96.70
38480;DHT22;62333;51.980;5.934;2023-04-24T03:59:58;11.00;96.70
38480;DHT22;62333;51.980;5.934;2023-04-24T04:02:24;11.00;96.70
38480;DHT22;62333;51.980;5.934;2023-04-24T04:04:50;11.00;96.70
38480;DHT22;62333;51.980;5.934;2023-04-24T04:07:15;11.00;96.70
38480;DHT22;62333;51.980;5.934;2023-04-24T04:09:41;11.00;96.60
38480;DHT22;62333;51.980;5.934;2023-04-24T04:12:07;11.00;96.60
38480;DHT22;62333;51.980;5.934;2023-04-24T04:14:33;11.00;96.60
38480;DHT22;62333;51.980;5.934;2023-04-24T04:16:58;11.00;96.50
38480;DHT22;62333;51.980;5.934;2023-04-24T04:19:24;11.00;96.50
38480;DHT22;62333;51.980;5.934;2023-04-24T04:21:49;10.90;96.50
38480;DHT22;62333;51.980;5.934;2023-04-24T04:24:21;10.90;96.50
38480;DHT22;62333;51.980;5.934;2023-04-24T04:26:48;11.00;96.40
38480;DHT22;62333;51.980;5.934;2023-04-24T04:29:17;11.00;96.30
38480;DHT22;62333;51.980;5.934;2023-04-24T04:31:44;11.00;96.20
38480;DHT22;62333;51.980;5.934;2023-04-24T04:34:10;11.00;96.20
38480;DHT22;62333;51.980;5.934;2023-04-24T04:36:36;11.00;96.10
38480;DHT22;62333;51.980;5.934;2023-04-24T04:39:05;11.00;96.10
38480;DHT22;62333;51.980;5.934;2023-04-24T04:41:32;11.00;96.10
38480;DHT22;62333;51.980;5.934;2023-04-24T04:44:00;10.90;96.10
38480;DHT22;62333;51.980;5.934;2023-04-24T04:46:26;10.90;96.10
38480;DHT22;62333;51.980;5.934;2023-04-24T04:48:53;10.80;96.20
38480;DHT22;62333;51.980;5.934;2023-04-24T04:51:18;10.80;96.20
38480;DHT22;62333;51.980;5.934;2023-04-24T04:53:44;10.70;96.30
38480;DHT22;62333;51.980;5.934;2023-04-24T04:56:10;10.70;96.50
38480;DHT22;62333;51.980;5.934;2023-04-24T04:58:36;10.60;96.70
38480;DHT22;62333;51.980;5.934;2023-04-24T05:01:02;10.50;96.80
38480;DHT22;62333;51.980;5.934;2023-04-24T05:03:28;10.50;96.90
38480;DHT22;62333;51.980;5.934;2023-04-24T05:05:53;10.50;96.90
38480;DHT22;62333;51.980;5.934;2023-04-24T05:08:19;10.50;96.90
38480;DHT22;62333;51.980;5.934;2023-04-24T05:10:45;10.40;97.00
38480;DHT22;62333;51.980;5.934;2023-04-24T05:13:10;10.40;97.10
38480;DHT22;62333;51.980;5.934;2023-04-24T05:15:36;10.40;97.10
38480;DHT22;62333;51.980;5.934;2023-04-24T05:18:02;10.40;97.00
38480;DHT22;62333;51.980;5.934;2023-04-24T05:20:28;10.50;97.00
38480;DHT22;62333;51.980;5.934;2023-04-24T05:22:54;10.50;97.00
38480;DHT22;62333;51.980;5.934;2023-04-24T05:25:19;10.50;97.10
38480;DHT22;62333;51.980;5.934;2023-04-24T05:27:45;10.40;97.20
38480;DHT22;62333;51.980;5.934;2023-04-24T05:30:12;10.40;97.40
38480;DHT22;62333;51.980;5.934;2023-04-24T05:32:38;10.40;97.40
38480;DHT22;62333;51.980;5.934;2023-04-24T05:35:04;10.40;97.30
38480;DHT22;62333;51.980;5.934;2023-04-24T05:37:29;10.40;97.50
38480;DHT22;62333;51.980;5.934;2023-04-24T05:39:55;10.40;97.40
38480;DHT22;62333;51.980;5.934;2023-04-24T05:42:21;10.50;97.50
38480;DHT22;62333;51.980;5.934;2023-04-24T05:44:46;10.50;97.40
38480;DHT22;62333;51.980;5.934;2023-04-24T05:47:12;10.50;97.30
38480;DHT22;62333;51.980;5.934;2023-04-24T05:49:37;10.60;97.30
38480;DHT22;62333;51.980;5.934;2023-04-24T05:52:03;10.60;97.20
38480;DHT22;62333;51.980;5.934;2023-04-24T05:54:30;10.70;97.20
38480;DHT22;62333;51.980;5.934;2023-04-24T05:56:56;10.70;97.10
38480;DHT22;62333;51.980;5.934;2023-04-24T05:59:22;10.70;97.10
38480;DHT22;62333;51.980;5.934;2023-04-24T06:01:47;10.80;97.10
38480;DHT22;62333;51.980;5.934;2023-04-24T06:04:13;10.80;97.00
38480;DHT22;62333;51.980;5.934;2023-04-24T06:06:39;10.90;97.00
38480;DHT22;62333;51.980;5.934;2023-04-24T06:09:05;10.90;97.00
38480;DHT22;62333;51.980;5.934;2023-04-24T06:11:31;11.00;96.90
38480;DHT22;62333;51.980;5.934;2023-04-24T06:13:57;11.00;96.90
38480;DHT22;62333;51.980;5.934;2023-04-24T06:16:22;11.00;96.90
38480;DHT22;62333;51.980;5.934;2023-04-24T06:18:48;11.00;96.80
38480;DHT22;62333;51.980;5.934;2023-04-24T06:21:17;11.10;96.80
38480;DHT22;62333;51.980;5.934;2023-04-24T06:23:43;11.10;96.80
38480;DHT22;62333;51.980;5.934;2023-04-24T06:26:08;11.10;96.70
38480;DHT22;62333;51.980;5.934;2023-04-24T06:28:34;11.20;96.70
38480;DHT22;62333;51.980;5.934;2023-04-24T06:31:00;11.20;96.70
38480;DHT22;62333;51.980;5.934;2023-04-24T06:33:25;11.20;96.70
38480;DHT22;62333;51.980;5.934;2023-04-24T06:35:51;11.20;96.60
38480;DHT22;62333;51.980;5.934;2023-04-24T06:38:17;11.30;96.60
38480;DHT22;62333;51.980;5.934;2023-04-24T06:40:42;11.30;96.60
38480;DHT22;62333;51.980;5.934;2023-04-24T06:43:08;11.30;96.60
38480;DHT22;62333;51.980;5.934;2023-04-24T06:45:34;11.30;96.50
38480;DHT22;62333;51.980;5.934;2023-04-24T06:48:00;11.30;96.50
38480;DHT22;62333;51.980;5.934;2023-04-24T06:50:26;11.30;96.50
38480;DHT22;62333;51.980;5.934;2023-04-24T06:52:51;11.30;96.50
38480;DHT22;62333;51.980;5.934;2023-04-24T06:55:17;11.40;96.50
38480;DHT22;62333;51.980;5.934;2023-04-24T06:57:43;11.40;96.40
38480;DHT22;62333;51.980;5.934;2023-04-24T07:00:10;11.40;96.40
38480;DHT22;62333;51.980;5.934;2023-04-24T07:02:36;11.40;96.40
38480;DHT22;62333;51.980;5.934;2023-04-24T07:05:03;11.40;96.40
38480;DHT22;62333;51.980;5.934;2023-04-24T07:07:29;11.50;96.40
38480;DHT22;62333;51.980;5.934;2023-04-24T07:09:54;11.50;96.40
38480;DHT22;62333;51.980;5.934;2023-04-24T07:12:21;11.60;96.40
38480;DHT22;62333;51.980;5.934;2023-04-24T07:14:47;11.50;96.30
38480;DHT22;62333;51.980;5.934;2023-04-24T07:17:13;11.60;96.30
38480;DHT22;62333;51.980;5.934;2023-04-24T07:19:39;11.60;96.30
38480;DHT22;62333;51.980;5.934;2023-04-24T07:22:05;11.60;96.30
38480;DHT22;62333;51.980;5.934;2023-04-24T07:24:31;11.60;96.30
38480;DHT22;62333;51.980;5.934;2023-04-24T07:27:00;11.60;96.30
38480;DHT22;62333;51.980;5.934;2023-04-24T07:29:28;11.60;96.20
38480;DHT22;62333;51.980;5.934;2023-04-24T07:31:54;11.60;96.20
38480;DHT22;62333;51.980;5.934;2023-04-24T07:34:20;11.60;96.20
38480;DHT22;62333;51.980;5.934;2023-04-24T07:36:46;11.60;96.10
38480;DHT22;62333;51.980;5.934;2023-04-24T07:39:11;11.60;96.10
38480;DHT22;62333;51.980;5.934;2023-04-24T07:41:37;11.60;96.10
38480;DHT22;62333;51.980;5.934;2023-04-24T07:44:03;11.60;96.10
38480;DHT22;62333;51.980;5.934;2023-04-24T07:46:30;11.60;96.10
38480;DHT22;62333;51.980;5.934;2023-04-24T07:48:55;11.60;96.10
38480;DHT22;62333;51.980;5.934;2023-04-24T07:51:21;11.50;96.00
38480;DHT22;62333;51.980;5.934;2023-04-24T07:53:47;11.50;96.00
38480;DHT22;62333;51.980;5.934;2023-04-24T07:56:13;11.50;95.90
38480;DHT22;62333;51.980;5.934;2023-04-24T07:58:38;11.50;95.90
38480;DHT22;62333;51.980;5.934;2023-04-24T08:01:04;11.50;95.90
38480;DHT22;62333;51.980;5.934;2023-04-24T08:03:30;11.40;95.80
38480;DHT22;62333;51.980;5.934;2023-04-24T08:05:55;11.40;95.80
38480;DHT22;62333;51.980;5.934;2023-04-24T08:08:22;11.40;95.70
38480;DHT22;62333;51.980;5.934;2023-04-24T08:10:48;11.40;95.70
38480;DHT22;62333;51.980;5.934;2023-04-24T08:13:14;11.40;95.60
38480;DHT22;62333;51.980;5.934;2023-04-24T08:15:39;11.30;95.50
38480;DHT22;62333;51.980;5.934;2023-04-24T08:18:05;11.30;95.50
38480;DHT22;62333;51.980;5.934;2023-04-24T08:20:31;11.30;95.40
38480;DHT22;62333;51.980;5.934;2023-04-24T08:22:57;11.30;95.30
38480;DHT22;62333;51.980;5.934;2023-04-24T08:25:22;11.20;95.20
38480;DHT22;62333;51.980;5.934;2023-04-24T08:27:51;11.20;95.30
38480;DHT22;62333;51.980;5.934;2023-04-24T08:30:17;11.20;95.20
38480;DHT22;62333;51.980;5.934;2023-04-24T08:32:43;11.20;95.20
38480;DHT22;62333;51.980;5.934;2023-04-24T08:35:09;11.10;95.20
38480;DHT22;62333;51.980;5.934;2023-04-24T08:37:36;11.10;95.20
38480;DHT22;62333;51.980;5.934;2023-04-24T08:40:15;11.10;95.10
38480;DHT22;62333;51.980;5.934;2023-04-24T08:42:44;11.10;95.10
38480;DHT22;62333;51.980;5.934;2023-04-24T08:45:12;11.10;95.10
38480;DHT22;62333;51.980;5.934;2023-04-24T08:47:39;11.10;95.10
38480;DHT22;62333;51.980;5.934;2023-04-24T08:50:06;11.10;95.20
38480;DHT22;62333;51.980;5.934;2023-04-24T08:52:34;11.10;95.20
38480;DHT22;62333;51.980;5.934;2023-04-24T08:55:03;11.10;95.30
38480;DHT22;62333;51.980;5.934;2023-04-24T08:57:29;11.10;95.30
38480;DHT22;62333;51.980;5.934;2023-04-24T08:59:58;11.10;95.30
38480;DHT22;62333;51.980;5.934;2023-04-24T09:02:23;11.10;95.30
38480;DHT22;62333;51.980;5.934;2023-04-24T09:04:50;11.10;95.40
38480;DHT22;62333;51.980;5.934;2023-04-24T09:07:17;11.20;95.40
38480;DHT22;62333;51.980;5.934;2023-04-24T09:09:43;11.20;95.30
38480;DHT22;62333;51.980;5.934;2023-04-24T09:12:09;11.20;95.30
38480;DHT22;62333;51.980;5.934;2023-04-24T09:14:36;11.20;95.30
38480;DHT22;62333;51.980;5.934;2023-04-24T09:17:05;11.20;95.30
38480;DHT22;62333;51.980;5.934;2023-04-24T09:19:31;11.20;95.20
38480;DHT22;62333;51.980;5.934;2023-04-24T09:21:57;11.20;95.10
38480;DHT22;62333;51.980;5.934;2023-04-24T09:24:23;11.10;95.00
38480;DHT22;62333;51.980;5.934;2023-04-24T09:26:55;11.10;94.90
38480;DHT22;62333;51.980;5.934;2023-04-24T09:29:22;11.10;95.00
38480;DHT22;62333;51.980;5.934;2023-04-24T09:31:48;11.20;95.00
38480;DHT22;62333;51.980;5.934;2023-04-24T09:34:14;11.20;94.90
38480;DHT22;62333;51.980;5.934;2023-04-24T09:36:42;11.20;94.80
38480;DHT22;62333;51.980;5.934;2023-04-24T09:39:13;11.30;94.70
38480;DHT22;62333;51.980;5.934;2023-04-24T09:41:48;11.30;94.50
38480;DHT22;62333;51.980;5.934;2023-04-24T09:44:19;11.30;94.40
38480;DHT22;62333;51.980;5.934;2023-04-24T09:46:56;11.40;94.30
38480;DHT22;62333;51.980;5.934;2023-04-24T09:49:26;11.40;94.10
38480;DHT22;62333;51.980;5.934;2023-04-24T09:52:02;11.40;93.80
38480;DHT22;62333;51.980;5.934;2023-04-24T09:54:28;11.40;93.70
38480;DHT22;62333;51.980;5.934;2023-04-24T09:56:55;11.40;93.70
38480;DHT22;62333;51.980;5.934;2023-04-24T09:59:22;11.50;93.50
38480;DHT22;62333;51.980;5.934;2023-04-24T10:01:48;11.60;93.50
38480;DHT22;62333;51.980;5.934;2023-04-24T10:04:28;11.70;93.30
38480;DHT22;62333;51.980;5.934;2023-04-24T10:06:56;11.70;93.20
38480;DHT22;62333;51.980;5.934;2023-04-24T10:09:24;11.80;93.00
38480;DHT22;62333;51.980;5.934;2023-04-24T10:11:51;11.80;92.90
38480;DHT22;62333;51.980;5.934;2023-04-24T10:14:18;11.90;92.60
38480;DHT22;62333;51.980;5.934;2023-04-24T10:16:46;12.00;92.40
38480;DHT22;62333;51.980;5.934;2023-04-24T10:19:16;12.10;92.30
38480;DHT22;62333;51.980;5.934;2023-04-24T10:21:43;12.20;92.20
38480;DHT22;62333;51.980;5.934;2023-04-24T10:24:16;12.30;91.90
38480;DHT22;62333;51.980;5.934;2023-04-24T10:26:42;12.50;91.90
38480;DHT22;62333;51.980;5.934;2023-04-24T10:29:10;12.70;91.50
38480;DHT22;62333;51.980;5.934;2023-04-24T10:31:38;13.00;91.40
38480;DHT22;62333;51.980;5.934;2023-04-24T10:34:07;13.30;91.00
38480;DHT22;62333;51.980;5.934;2023-04-24T10:36:34;13.70;90.30
38480;DHT22;62333;51.980;5.934;2023-04-24T10:39:03;13.90;89.70
38480;DHT22;62333;51.980;5.934;2023-04-24T10:41:32;14.10;88.10
38480;DHT22;62333;51.980;5.934;2023-04-24T10:44:11;14.20;87.60
38480;DHT22;62333;51.980;5.934;2023-04-24T10:46:39;14.30;86.60
38480;DHT22;62333;51.980;5.934;2023-04-24T10:49:08;14.20;84.40
38480;DHT22;62333;51.980;5.934;2023-04-24T10:51:51;14.20;82.90
38480;DHT22;62333;51.980;5.934;2023-04-24T10:54:28;14.10;81.60
38480;DHT22;62333;51.980;5.934;2023-04-24T10:59:46;13.90;81.40
38480;DHT22;62333;51.980;5.934;2023-04-24T11:02:15;13.80;81.60
38480;DHT22;62333;51.980;5.934;2023-04-24T11:04:42;13.80;81.80
38480;DHT22;62333;51.980;5.934;2023-04-24T11:07:09;13.70;81.40
38480;DHT22;62333;51.980;5.934;2023-04-24T11:09:35;13.70;81.30
38480;DHT22;62333;51.980;5.934;2023-04-24T11:12:11;13.60;80.90
38480;DHT22;62333;51.980;5.934;2023-04-24T11:17:51;13.50;81.10
38480;DHT22;62333;51.980;5.934;2023-04-24T11:20:23;13.30;81.40
38480;DHT22;62333;51.980;5.934;2023-04-24T11:22:53;13.30;81.60
38480;DHT22;62333;51.980;5.934;2023-04-24T11:25:21;13.10;81.40
38480;DHT22;62333;51.980;5.934;2023-04-24T11:27:49;13.00;81.50
38480;DHT22;62333;51.980;5.934;2023-04-24T11:30:19;13.00;81.90
38480;DHT22;62333;51.980;5.934;2023-04-24T11:32:50;13.00;81.70
38480;DHT22;62333;51.980;5.934;2023-04-24T11:35:21;13.00;81.60
38480;DHT22;62333;51.980;5.934;2023-04-24T11:37:54;13.00;81.40
38480;DHT22;62333;51.980;5.934;2023-04-24T11:40:21;13.00;81.50
38480;DHT22;62333;51.980;5.934;2023-04-24T11:42:49;13.10;81.80
38480;DHT22;62333;51.980;5.934;2023-04-24T11:45:18;13.10;81.90
38480;DHT22;62333;51.980;5.934;2023-04-24T11:47:45;13.10;81.60
38480;DHT22;62333;51.980;5.934;2023-04-24T11:50:12;13.20;81.60
38480;DHT22;62333;51.980;5.934;2023-04-24T11:52:40;13.20;82.00
38480;DHT22;62333;51.980;5.934;2023-04-24T11:57:48;13.30;81.00
38480;DHT22;62333;51.980;5.934;2023-04-24T12:00:19;13.30;80.70
38480;DHT22;62333;51.980;5.934;2023-04-24T12:02:46;13.30;80.70
38480;DHT22;62333;51.980;5.934;2023-04-24T12:05:26;13.20;79.70
38480;DHT22;62333;51.980;5.934;2023-04-24T12:07:53;13.10;80.10
38480;DHT22;62333;51.980;5.934;2023-04-24T12:10:27;13.10;80.60
38480;DHT22;62333;51.980;5.934;2023-04-24T12:12:54;13.10;81.40
38480;DHT22;62333;51.980;5.934;2023-04-24T12:15:21;13.00;82.40
38480;DHT22;62333;51.980;5.934;2023-04-24T12:17:53;12.90;83.30
38480;DHT22;62333;51.980;5.934;2023-04-24T12:20:26;12.80;84.00
38480;DHT22;62333;51.980;5.934;2023-04-24T12:22:54;12.70;84.60
38480;DHT22;62333;51.980;5.934;2023-04-24T12:25:22;12.80;85.40
38480;DHT22;62333;51.980;5.934;2023-04-24T12:27:54;12.80;85.90
38480;DHT22;62333;51.980;5.934;2023-04-24T12:30:20;12.90;85.90
38480;DHT22;62333;51.980;5.934;2023-04-24T12:32:49;12.90;85.80
38480;DHT22;62333;51.980;5.934;2023-04-24T12:35:21;12.90;85.80
38480;DHT22;62333;51.980;5.934;2023-04-24T12:37:46;12.90;85.60
38480;DHT22;62333;51.980;5.934;2023-04-24T12:40:13;13.00;85.40
38480;DHT22;62333;51.980;5.934;2023-04-24T12:42:50;13.20;84.50
38480;DHT22;62333;51.980;5.934;2023-04-24T12:45:18;13.30;83.50
38480;DHT22;62333;51.980;5.934;2023-04-24T12:47:45;13.50;82.80
38480;DHT22;62333;51.980;5.934;2023-04-24T12:50:12;13.60;82.00
38480;DHT22;62333;51.980;5.934;2023-04-24T12:52:39;13.60;81.40
38480;DHT22;62333;51.980;5.934;2023-04-24T12:55:05;13.60;80.90
38480;DHT22;62333;51.980;5.934;2023-04-24T12:57:34;13.50;79.70
38480;DHT22;62333;51.980;5.934;2023-04-24T13:00:00;13.50;80.10
38480;DHT22;62333;51.980;5.934;2023-04-24T13:02:28;13.50;80.20
38480;DHT22;62333;51.980;5.934;2023-04-24T13:04:55;13.40;80.50
38480;DHT22;62333;51.980;5.934;2023-04-24T13:07:21;13.50;80.90
38480;DHT22;62333;51.980;5.934;2023-04-24T13:09:48;13.50;80.90
38480;DHT22;62333;51.980;5.934;2023-04-24T13:12:14;13.50;80.70
38480;DHT22;62333;51.980;5.934;2023-04-24T13:14:40;13.50;80.30
38480;DHT22;62333;51.980;5.934;2023-04-24T13:17:06;13.60;80.10
38480;DHT22;62333;51.980;5.934;2023-04-24T13:19:40;13.60;79.70
38480;DHT22;62333;51.980;5.934;2023-04-24T13:22:06;13.50;79.70
38480;DHT22;62333;51.980;5.934;2023-04-24T13:24:32;13.60;79.50
38480;DHT22;62333;51.980;5.934;2023-04-24T13:26:59;13.60;79.60
38480;DHT22;62333;51.980;5.934;2023-04-24T13:29:25;13.60;79.60
38480;DHT22;62333;51.980;5.934;2023-04-24T13:31:51;13.60;78.80
38480;DHT22;62333;51.980;5.934;2023-04-24T13:34:19;13.60;78.00
38480;DHT22;62333;51.980;5.934;2023-04-24T13:36:45;13.50;78.10
38480;DHT22;62333;51.980;5.934;2023-04-24T13:39:11;13.40;77.90
38480;DHT22;62333;51.980;5.934;2023-04-24T13:41:37;13.40;77.90
38480;DHT22;62333;51.980;5.934;2023-04-24T13:44:03;13.30;77.80
38480;DHT22;62333;51.980;5.934;2023-04-24T13:46:29;13.30;77.80
38480;DHT22;62333;51.980;5.934;2023-04-24T13:48:56;13.20;77.30
38480;DHT22;62333;51.980;5.934;2023-04-24T13:51:23;13.20;77.30
38480;DHT22;62333;51.980;5.934;2023-04-24T13:53:49;13.20;77.50
38480;DHT22;62333;51.980;5.934;2023-04-24T13:56:14;13.20;77.80
38480;DHT22;62333;51.980;5.934;2023-04-24T13:58:40;13.20;77.90
38480;DHT22;62333;51.980;5.934;2023-04-24T14:01:06;13.30;77.70
38480;DHT22;62333;51.980;5.934;2023-04-24T14:03:33;13.30;77.60
38480;DHT22;62333;51.980;5.934;2023-04-24T14:05:59;13.30;77.50
38480;DHT22;62333;51.980;5.934;2023-04-24T14:08:25;13.50;77.80
38480;DHT22;62333;51.980;5.934;2023-04-24T14:10:51;13.70;77.90
38480;DHT22;62333;51.980;5.934;2023-04-24T14:13:17;13.90;76.60
38480;DHT22;62333;51.980;5.934;2023-04-24T14:15:42;14.00;75.30
38480;DHT22;62333;51.980;5.934;2023-04-24T14:18:08;14.30;74.20
38480;DHT22;62333;51.980;5.934;2023-04-24T14:20:34;14.30;73.30
38480;DHT22;62333;51.980;5.934;2023-04-24T14:23:00;14.30;72.90
38480;DHT22;62333;51.980;5.934;2023-04-24T14:25:26;14.30;71.40
38480;DHT22;62333;51.980;5.934;2023-04-24T14:27:52;14.20;71.20
38480;DHT22;62333;51.980;5.934;2023-04-24T14:30:18;14.10;70.60
38480;DHT22;62333;51.980;5.934;2023-04-24T14:32:44;14.00;70.70
38480;DHT22;62333;51.980;5.934;2023-04-24T14:35:10;14.10;71.20
38480;DHT22;62333;51.980;5.934;2023-04-24T14:37:36;14.10;71.50
38480;DHT22;62333;51.980;5.934;2023-04-24T14:40:03;14.10;71.70
38480;DHT22;62333;51.980;5.934;2023-04-24T14:42:30;14.10;71.80
38480;DHT22;62333;51.980;5.934;2023-04-24T14:44:56;14.10;71.90
38480;DHT22;62333;51.980;5.934;2023-04-24T14:47:21;14.10;71.60
38480;DHT22;62333;51.980;5.934;2023-04-24T14:49:50;14.10;71.60
38480;DHT22;62333;51.980;5.934;2023-04-24T14:52:16;14.10;71.60
38480;DHT22;62333;51.980;5.934;2023-04-24T14:54:42;14.00;71.30
38480;DHT22;62333;51.980;5.934;2023-04-24T14:57:08;14.00;70.90
38480;DHT22;62333;51.980;5.934;2023-04-24T14:59:34;13.90;71.00
38480;DHT22;62333;51.980;5.934;2023-04-24T15:02:00;13.90;71.20
38480;DHT22;62333;51.980;5.934;2023-04-24T15:04:27;13.90;70.90
38480;DHT22;62333;51.980;5.934;2023-04-24T15:06:54;13.90;70.80
38480;DHT22;62333;51.980;5.934;2023-04-24T15:09:21;13.90;71.20
38480;DHT22;62333;51.980;5.934;2023-04-24T15:11:48;13.80;70.30
38480;DHT22;62333;51.980;5.934;2023-04-24T15:14:14;13.80;70.00
38480;DHT22;62333;51.980;5.934;2023-04-24T15:16:40;13.80;69.60
38480;DHT22;62333;51.980;5.934;2023-04-24T15:19:06;13.80;70.00
38480;DHT22;62333;51.980;5.934;2023-04-24T15:21:32;13.70;70.30
38480;DHT22;62333;51.980;5.934;2023-04-24T15:23:58;13.70;70.50
38480;DHT22;62333;51.980;5.934;2023-04-24T15:26:24;13.70;70.10
38480;DHT22;62333;51.980;5.934;2023-04-24T15:28:51;13.70;69.50
38480;DHT22;62333;51.980;5.934;2023-04-24T15:31:17;13.70;68.40
38480;DHT22;62333;51.980;5.934;2023-04-24T15:33:43;13.60;68.00
38480;DHT22;62333;51.980;5.934;2023-04-24T15:36:09;13.50;67.60